Time;durP1;ratioP1;P1;durP2;ratioP2;P2;SDS_P1;SDS_P2;PMS_P1;PMS_P2;Temp;Humidity;BMP_temperature;BMP_pressure;BME280_temperature;BME280_humidity;BME280_pressure;Samples;Min_cycle;Max_cycle;Signal;HPM_P1;HPM_P2
2022/10/21 00:04:17;;;;;;;1.87;1.50;;;;;;;;;;20808804;28;20304;-70
2022/10/21 00:14:19;;;;;;;2.77;1.50;;;;;;;;;;20800000;28;20223;-70
2022/10/21 00:24:21;;;;;;;2.20;1.60;;;;;;;;;;20799193;28;20568;-70
2022/10/21 00:34:23;;;;;;;2.50;1.77;;;;;;;;;;20798166;28;20285;-71
2022/10/21 00:44:26;;;;;;;2.10;1.57;;;;;;;;;;20797522;28;20211;-71
2022/10/21 00:54:29;;;;;;;2.93;1.73;;;;;;;;;;20779004;28;20218;-70
2022/10/21 01:04:31;;;;;;;2.60;1.57;;;;;;;;;;20790782;28;20211;-70
2022/10/21 01:14:55;;;;;;;4.50;1.70;;;;;;;;;;20790702;28;20811;-70
2022/10/21 01:25:34;;;;;;;4.33;1.70;;;14.30;99.90;;;;;;20774425;28;20209;-70
2022/10/21 01:35:36;;;;;;;3.43;1.60;;;;;;;;;;20772719;28;20716;-69
2022/10/21 01:45:42;;;;;;;3.00;1.70;;;;;;;;;;20771513;28;20222;-70
2022/10/21 01:55:45;;;;;;;2.43;1.83;;;;;;;;;;20765527;28;175616;-70
2022/10/21 02:05:47;;;;;;;2.93;2.00;;;;;;;;;;20775672;28;20202;-70
2022/10/21 02:15:52;;;;;;;2.83;2.03;;;14.30;99.90;;;;;;20774206;28;20223;-70
2022/10/21 02:25:54;;;;;;;4.13;1.63;;;;;;;;;;20774570;28;20582;-70
2022/10/21 02:36:13;;;;;;;4.20;2.33;;;14.30;99.90;;;;;;20805498;28;20234;-70
2022/10/21 02:46:14;;;;;;;3.70;1.93;;;14.30;99.90;;;;;;20772741;28;20280;-70
2022/10/21 02:56:16;;;;;;;6.67;2.80;;;;;;;;;;20771329;28;20686;-70
2022/10/21 03:06:19;;;;;;;8.13;2.40;;;;;;;;;;20787598;28;20222;-71
2022/10/21 03:16:21;;;;;;;2.87;1.87;;;;;;;;;;20770714;28;20218;-70
2022/10/21 03:26:22;;;;;;;4.50;1.90;;;;;;;;;;20813104;28;20271;-70
2022/10/21 03:36:24;;;;;;;2.30;1.40;;;;;;;;;;20786751;28;20238;-71
2022/10/21 03:46:26;;;;;;;2.83;1.57;;;;;;;;;;20783372;28;20746;-70
2022/10/21 03:56:28;;;;;;;2.97;1.60;;;;;;;;;;20851294;23;20213;-75
2022/10/21 04:06:30;;;;;;;3.20;2.13;;;;;;;;;;20915335;28;20259;-76
2022/10/21 04:16:33;;;;;;;5.30;2.53;;;;;;;;;;20912453;28;20233;-76
2022/10/21 04:26:34;;;;;;;2.97;2.00;;;;;;;;;;20913245;28;20268;-75
2022/10/21 04:36:36;;;;;;;3.50;2.17;;;;;;;;;;20902596;28;20210;-75
2022/10/21 04:46:37;;;;;;;3.10;2.03;;;;;;;;;;20874656;28;20214;-74
2022/10/21 04:56:40;;;;;;;3.20;2.27;;;;;;;;;;20890643;28;20244;-75
2022/10/21 05:06:42;;;;;;;2.97;1.77;;;;;;;;;;20910628;28;20272;-74
2022/10/21 05:16:44;;;;;;;2.80;2.30;;;;;;;;;;20907786;28;20575;-74
2022/10/21 05:26:46;;;;;;;2.87;1.93;;;;;;;;;;20907689;28;20205;-74
2022/10/21 05:36:48;;;;;;;4.93;2.10;;;;;;;;;;20822565;28;20226;-74
2022/10/21 05:46:50;;;;;;;4.10;2.13;;;;;;;;;;20809233;28;20603;-75
2022/10/21 05:56:55;;;;;;;3.83;2.07;;;14.20;99.90;;;;;;20870962;28;20233;-77
2022/10/21 06:06:56;;;;;;;2.90;1.97;;;;;;;;;;20923331;28;20194;-74
2022/10/21 06:16:59;;;;;;;2.73;1.87;;;;;;;;;;20903251;28;20210;-74
2022/10/21 06:27:00;;;;;;;2.40;1.63;;;;;;;;;;20894796;28;20214;-73
2022/10/21 06:37:02;;;;;;;2.33;1.70;;;;;;;;;;20873058;28;20194;-74
2022/10/21 06:47:03;;;;;;;1.67;1.23;;;;;;;;;;20901143;28;20222;-75
2022/10/21 06:57:05;;;;;;;3.83;1.70;;;;;;;;;;20879039;28;20226;-73
2022/10/21 07:07:07;;;;;;;2.77;1.93;;;;;;;;;;20899868;28;20211;-75
2022/10/21 07:17:08;;;;;;;2.90;1.77;;;;;;;;;;20881549;28;20206;-73
2022/10/21 07:27:10;;;;;;;2.93;1.87;;;;;;;;;;20882435;28;20252;-73
2022/10/21 07:37:12;;;;;;;3.20;1.90;;;;;;;;;;20880114;28;20198;-73
2022/10/21 07:47:13;;;;;;;3.83;2.53;;;;;;;;;;20881120;28;20206;-73
2022/10/21 07:57:15;;;;;;;3.77;2.37;;;;;;;;;;20883744;28;20287;-72
2022/10/21 08:07:17;;;;;;;1.90;1.20;;;;;;;;;;20897292;28;20213;-73
2022/10/21 08:17:18;;;;;;;3.03;2.10;;;;;;;;;;20903385;28;20577;-73
2022/10/21 08:27:20;;;;;;;5.37;2.73;;;;;;;;;;20889211;28;20237;-73
2022/10/21 08:37:22;;;;;;;2.97;1.80;;;;;;;;;;20893607;28;20217;-73
2022/10/21 08:47:36;;;;;;;3.47;1.73;;;14.60;99.90;;;;;;20888164;28;20732;-73
2022/10/21 08:57:38;;;;;;;3.53;2.00;;;;;;;;;;20902055;28;20256;-73
2022/10/21 09:08:03;;;;;;;1.90;1.30;;;;;;;;;;20907935;28;20205;-73
2022/10/21 09:18:11;;;;;;;1.47;1.07;;;;;;;;;;20880166;28;20214;-73
2022/10/21 09:28:14;;;;;;;2.00;0.90;;;14.70;99.90;;;;;;20907663;28;20229;-73
2022/10/21 09:38:20;;;;;;;2.97;1.30;;;;;;;;;;20906575;28;20193;-73
2022/10/21 09:48:48;;;;;;;1.10;0.80;;;14.80;99.90;;;;;;20846294;28;20290;-73
2022/10/21 09:59:08;;;;;;;1.13;0.73;;;15.00;99.90;;;;;;20895365;22;20794;-74
2022/10/21 10:09:31;;;;;;;1.23;0.30;;;15.00;99.90;;;;;;20924281;28;20213;-74
2022/10/21 10:19:32;;;;;;;0.93;0.60;;;;;;;;;;20856436;28;20618;-75
2022/10/21 10:29:36;;;;;;;0.87;0.40;;;;;;;;;;20877182;28;20707;-74
2022/10/21 10:39:39;;;;;;;0.53;0.40;;;;;;;;;;20898334;28;20221;-74
2022/10/21 10:49:42;;;;;;;0.90;0.50;;;15.50;99.90;;;;;;20864718;28;20230;-74
2022/10/21 11:00:06;;;;;;;0.63;0.40;;;;;;;;;;20846133;28;20218;-74
2022/10/21 11:10:27;;;;;;;0.97;0.30;;;;;;;;;;20892218;28;20268;-73
2022/10/21 11:20:38;;;;;;;0.97;0.47;;;;;;;;;;20897393;28;20244;-73
2022/10/21 11:31:02;;;;;;;1.07;0.40;;;;;;;;;;20898930;28;20233;-73
2022/10/21 11:41:07;;;;;;;0.40;0.30;;;;;;;;;;20881738;28;20217;-73
2022/10/21 11:51:09;;;;;;;0.73;0.53;;;;;;;;;;20915033;28;20222;-74
2022/10/21 12:01:26;;;;;;;0.90;0.40;;;;;;;;;;20899822;28;20754;-73
2022/10/21 12:11:32;;;;;;;0.97;0.60;;;;;;;;;;20913023;28;20225;-73
2022/10/21 12:21:37;;;;;;;0.90;0.40;;;17.30;99.90;;;;;;20913320;28;20255;-73
2022/10/21 12:31:44;;;;;;;1.27;0.50;;;;;;;;;;20895066;28;20226;-73
2022/10/21 12:41:47;;;;;;;0.50;0.40;;;;;;;;;;20910705;28;20214;-73
2022/10/21 12:51:58;;;;;;;1.07;0.50;;;17.50;99.90;;;;;;20897730;28;20718;-73
2022/10/21 13:02:06;;;;;;;0.63;0.47;;;;;;;;;;20878171;28;20382;-73
2022/10/21 13:12:08;;;;;;;0.87;0.50;;;;;;;;;;20892225;28;20283;-73
2022/10/21 13:22:13;;;;;;;0.80;0.50;;;17.10;99.90;;;;;;20891621;28;20264;-73
2022/10/21 13:32:20;;;;;;;0.87;0.70;;;;;;;;;;20902381;28;20268;-73
2022/10/21 13:42:23;;;;;;;5.67;0.90;;;17.30;99.90;;;;;;20902705;28;20198;-74
2022/10/21 13:52:28;;;;;;;1.43;0.50;;;17.10;99.90;;;;;;20868981;28;20586;-73
2022/10/21 14:02:31;;;;;;;1.80;0.60;;;;;;;;;;20899082;28;20259;-74
2022/10/21 14:12:35;;;;;;;1.10;0.60;;;;;;;;;;20896784;28;20290;-73
2022/10/21 14:22:36;;;;;;;1.20;0.70;;;;;;;;;;20894087;28;20202;-74
2022/10/21 14:32:38;;;;;;;1.10;0.60;;;;;;;;;;20893777;28;20237;-73
2022/10/21 14:42:40;;;;;;;2.00;0.73;;;;;;;;;;20893527;28;20190;-74
2022/10/21 14:52:45;;;;;;;1.17;0.60;;;;;;;;;;20888251;28;20209;-73
2022/10/21 15:02:47;;;;;;;5.63;2.53;;;16.90;99.90;;;;;;20887817;28;20217;-73
2022/10/21 15:12:51;;;;;;;1.60;0.90;;;;;;;;;;20895366;28;20244;-74
2022/10/21 15:22:53;;;;;;;2.63;1.50;;;;;;;;;;20894349;28;20629;-75
2022/10/21 15:32:55;;;;;;;1.40;0.90;;;;;;;;;;20894036;28;20221;-74
2022/10/21 15:42:56;;;;;;;2.13;0.93;;;;;;;;;;20871346;28;20217;-74
2022/10/21 15:52:58;;;;;;;1.63;0.40;;;;;;;;;;20883936;28;20217;-74
2022/10/21 16:03:00;;;;;;;0.73;0.30;;;;;;;;;;20883452;28;20672;-75
2022/10/21 16:13:02;;;;;;;4.27;0.57;;;;;;;;;;20894298;28;20218;-74
2022/10/21 16:23:04;;;;;;;0.30;0.23;;;;;;;;;;20875758;28;20540;-75
2022/10/21 16:33:07;;;;;;;0.50;0.40;;;;;;;;;;20902676;28;20577;-74
2022/10/21 16:43:11;;;;;;;1.20;0.40;;;;;;;;;;20873780;28;20629;-73
2022/10/21 16:53:13;;;;;;;2.30;0.40;;;;;;;;;;20869535;28;20713;-73
2022/10/21 17:03:15;;;;;;;0.80;0.33;;;;;;;;;;20902147;28;20267;-73
2022/10/21 17:13:18;;;;;;;1.33;0.40;;;;;;;;;;20876084;28;20229;-77
2022/10/21 17:23:20;;;;;;;1.73;0.70;;;;;;;;;;20883238;28;20260;-74
2022/10/21 17:33:22;;;;;;;0.53;0.30;;;;;;;;;;20884854;28;20269;-74
2022/10/21 17:43:23;;;;;;;1.43;0.50;;;;;;;;;;20878518;28;20240;-76
2022/10/21 17:53:28;;;;;;;0.73;0.50;;;;;;;;;;20880994;28;20750;-73
2022/10/21 18:03:31;;;;;;;0.87;0.50;;;;;;;;;;20883278;28;20267;-76
2022/10/21 18:13:33;;;;;;;2.27;0.40;;;;;;;;;;20883724;28;20292;-75
2022/10/21 18:23:36;;;;;;;0.63;0.50;;;;;;;;;;20901032;28;20260;-75
2022/10/21 18:33:38;;;;;;;0.43;0.30;;;;;;;;;;20882281;28;20263;-74
2022/10/21 18:43:39;;;;;;;1.53;0.40;;;;;;;;;;20880742;28;20202;-75
2022/10/21 18:53:41;;;;;;;1.80;0.47;;;;;;;;;;20897557;28;20276;-75
2022/10/21 19:03:43;;;;;;;1.60;0.60;;;;;;;;;;20897564;28;20283;-75
2022/10/21 19:13:46;;;;;;;0.80;0.50;;;;;;;;;;20895397;28;20229;-75
2022/10/21 19:23:48;;;;;;;1.97;0.77;;;;;;;;;;20897321;28;20595;-75
2022/10/21 19:33:50;;;;;;;0.90;0.50;;;15.90;99.90;;;;;;20888540;28;20233;-74
2022/10/21 19:43:57;;;;;;;1.23;0.60;;;;;;;;;;20886482;28;20283;-76
2022/10/21 19:53:58;;;;;;;1.53;0.70;;;;;;;;;;20856024;28;20281;-75
2022/10/21 20:04:01;;;;;;;0.73;0.43;;;;;;;;;;20856805;28;20255;-76
2022/10/21 20:14:03;;;;;;;1.50;0.50;;;;;;;;;;20903285;28;20245;-76
2022/10/21 20:24:05;;;;;;;0.53;0.40;;;;;;;;;;20889369;28;20289;-75
2022/10/21 20:34:07;;;;;;;1.17;0.70;;;;;;;;;;20871727;28;20226;-76
2022/10/21 20:44:15;;;;;;;1.13;0.70;;;;;;;;;;20887991;28;20316;-74
2022/10/21 20:54:21;;;;;;;3.33;1.00;;;;;;;;;;20902125;28;20294;-75
2022/10/21 21:04:24;;;;;;;0.97;0.53;;;;;;;;;;20904734;28;20226;-75
2022/10/21 21:14:25;;;;;;;0.40;0.33;;;;;;;;;;20904162;28;20295;-75
2022/10/21 21:24:27;;;;;;;1.43;0.60;;;;;;;;;;20889059;28;20268;-74
2022/10/21 21:34:29;;;;;;;0.70;0.50;;;;;;;;;;20904521;28;20264;-74
2022/10/21 21:44:31;;;;;;;0.63;0.50;;;;;;;;;;20868551;28;20234;-74
2022/10/21 21:54:33;;;;;;;1.33;0.50;;;;;;;;;;20904872;28;20635;-75
2022/10/21 22:04:38;;;;;;;2.27;0.50;;;;;;;;;;20926960;22;20234;-68
2022/10/21 22:14:39;;;;;;;0.67;0.50;;;;;;;;;;20835200;28;20248;-68
2022/10/21 22:24:41;;;;;;;1.27;0.57;;;;;;;;;;20856627;28;20272;-69
2022/10/21 22:34:44;;;;;;;0.60;0.50;;;15.50;99.90;;;;;;20839154;28;20287;-69
2022/10/21 22:44:45;;;;;;;2.17;0.60;;;;;;;;;;20838927;28;20205;-69
2022/10/21 22:54:47;;;;;;;0.90;0.40;;;;;;;;;;20837701;28;20213;-69
2022/10/21 23:04:49;;;;;;;1.07;0.63;;;;;;;;;;20837066;28;20561;-68
2022/10/21 23:14:51;;;;;;;0.63;0.50;;;;;;;;;;20852124;28;20221;-69
2022/10/21 23:24:53;;;;;;;0.30;0.30;;;;;;;;;;20868185;28;20206;-69
2022/10/21 23:34:55;;;;;;;0.90;0.40;;;;;;;;;;20836138;28;20214;-68
2022/10/21 23:44:57;;;;;;;0.63;0.33;;;;;;;;;;20865084;28;20182;-68
2022/10/21 23:54:59;;;;;;;0.37;0.20;;;;;;;;;;20905210;28;20221;-69
